createdAt,value
2023-05-12T00:02:06.314Z,12.96
2023-05-12T00:05:09.772Z,12.90
2023-05-12T00:08:12.508Z,12.93
2023-05-12T00:11:15.483Z,12.80
2023-05-12T00:14:18.378Z,12.81
2023-05-12T00:17:21.413Z,12.83
2023-05-12T00:20:24.004Z,12.72
2023-05-12T00:23:26.817Z,12.69
2023-05-12T00:26:29.303Z,12.69
2023-05-12T00:29:33.439Z,12.50
2023-05-12T00:32:35.929Z,12.64
2023-05-12T00:35:38.696Z,12.63
2023-05-12T00:38:41.476Z,12.56
2023-05-12T00:41:44.567Z,12.56
2023-05-12T00:44:47.877Z,12.52
2023-05-12T00:47:51.979Z,12.51
2023-05-12T00:50:55.733Z,12.40
2023-05-12T00:53:59.181Z,12.25
2023-05-12T00:57:02.122Z,12.28
2023-05-12T01:00:07.124Z,12.17
2023-05-12T01:03:10.187Z,12.26
2023-05-12T01:06:17.977Z,12.29
2023-05-12T01:09:20.962Z,12.26
2023-05-12T01:12:24.967Z,12.23
2023-05-12T01:15:28.923Z,12.18
2023-05-12T01:18:33.711Z,12.14
2023-05-12T01:21:37.105Z,12.12
2023-05-12T01:24:58.431Z,12.15
2023-05-12T01:28:02.694Z,12.08
2023-05-12T01:31:07.029Z,11.94
2023-05-12T01:34:16.230Z,11.84
2023-05-12T01:37:19.774Z,11.87
2023-05-12T01:40:22.771Z,11.89
2023-05-12T01:43:25.834Z,11.90
2023-05-12T01:46:28.806Z,11.90
2023-05-12T01:49:32.865Z,11.86
2023-05-12T01:52:35.912Z,11.91
2023-05-12T01:55:39.000Z,11.87
2023-05-12T01:58:41.798Z,11.87
2023-05-12T02:01:44.999Z,11.80
2023-05-12T02:04:49.425Z,11.77
2023-05-12T02:07:52.277Z,11.70
2023-05-12T02:11:07.880Z,11.68
2023-05-12T02:14:10.806Z,11.69
2023-05-12T02:17:14.249Z,11.72
2023-05-12T02:20:17.551Z,11.74
2023-05-12T02:23:20.835Z,11.72
2023-05-12T02:26:23.447Z,11.63
2023-05-12T02:29:26.630Z,11.68
2023-05-12T02:32:29.784Z,11.67
2023-05-12T02:35:32.636Z,11.63
2023-05-12T02:38:35.387Z,11.64
2023-05-12T02:41:38.714Z,11.51
2023-05-12T02:44:41.364Z,11.57
2023-05-12T02:47:44.376Z,11.58
2023-05-12T02:50:47.052Z,11.56
2023-05-12T02:53:50.269Z,11.62
2023-05-12T02:56:53.614Z,11.61
2023-05-12T02:59:56.385Z,11.57
2023-05-12T03:02:59.375Z,11.56
2023-05-12T03:06:04.666Z,11.57
2023-05-12T03:09:07.381Z,11.57
2023-05-12T03:12:10.392Z,11.58
2023-05-12T03:15:13.197Z,11.54
2023-05-12T03:18:16.201Z,11.41
2023-05-12T03:21:18.779Z,11.49
2023-05-12T03:24:21.563Z,11.47
2023-05-12T03:27:24.207Z,11.43
2023-05-12T03:30:27.029Z,11.41
2023-05-12T03:33:30.356Z,11.43
2023-05-12T03:36:33.819Z,11.37
2023-05-12T03:39:36.466Z,11.38
2023-05-12T03:42:39.600Z,11.40
2023-05-12T03:45:44.102Z,11.39
2023-05-12T03:48:47.335Z,11.33
2023-05-12T03:51:50.204Z,11.29
2023-05-12T03:54:54.389Z,11.28
2023-05-12T03:57:57.000Z,11.32
2023-05-12T04:01:01.718Z,11.33
2023-05-12T04:04:04.976Z,11.33
2023-05-12T04:07:07.746Z,11.36
2023-05-12T04:10:10.754Z,11.38
2023-05-12T04:13:13.321Z,11.39
2023-05-12T04:16:16.541Z,11.36
2023-05-12T04:19:19.064Z,11.34
2023-05-12T04:22:23.436Z,11.35
2023-05-12T04:25:27.568Z,11.36
2023-05-12T04:28:30.453Z,11.37
2023-05-12T04:31:33.134Z,11.38
2023-05-12T04:34:36.753Z,11.43
2023-05-12T04:37:40.037Z,11.40
2023-05-12T04:40:43.346Z,11.41
2023-05-12T04:46:56.081Z,11.44
2023-05-12T04:49:58.665Z,11.53
2023-05-12T04:53:01.490Z,11.52
2023-05-12T04:56:04.180Z,11.56
2023-05-12T04:59:07.111Z,12.20
2023-05-12T05:02:10.060Z,12.11
2023-05-12T05:05:12.818Z,12.01
2023-05-12T05:08:15.635Z,11.96
2023-05-12T05:11:18.840Z,11.90
2023-05-12T05:14:22.054Z,11.87
2023-05-12T05:17:25.185Z,11.91
2023-05-12T05:20:29.343Z,11.86
2023-05-12T05:23:32.563Z,11.92
2023-05-12T05:26:35.927Z,11.91
2023-05-12T05:29:39.588Z,11.88
2023-05-12T05:32:42.991Z,11.90
2023-05-12T05:35:46.924Z,11.86
2023-05-12T05:38:49.866Z,12.21
2023-05-12T05:41:52.838Z,12.09
2023-05-12T05:44:56.401Z,12.05
2023-05-12T05:47:59.811Z,12.06
2023-05-12T05:51:03.229Z,11.98
2023-05-12T05:54:06.291Z,11.95
2023-05-12T05:57:08.956Z,11.97
2023-05-12T06:00:14.367Z,11.93
2023-05-12T06:03:19.306Z,11.97
2023-05-12T06:06:22.265Z,11.89
2023-05-12T06:09:25.189Z,11.97
2023-05-12T06:12:28.002Z,11.92
2023-05-12T06:15:30.828Z,11.76
2023-05-12T06:18:37.764Z,11.75
2023-05-12T06:21:40.999Z,11.87
2023-05-12T06:24:43.761Z,11.81
2023-05-12T06:27:46.788Z,11.80
2023-05-12T06:30:49.328Z,11.86
2023-05-12T06:33:53.143Z,11.91
2023-05-12T06:36:56.060Z,11.86
2023-05-12T06:39:59.652Z,11.80
2023-05-12T06:43:02.903Z,11.87
2023-05-12T06:46:06.950Z,11.89
2023-05-12T06:49:10.624Z,11.91
2023-05-12T06:52:13.441Z,11.83
2023-05-12T06:55:20.158Z,11.71
2023-05-12T06:58:23.312Z,11.68
2023-05-12T07:01:25.900Z,11.76
2023-05-12T07:04:29.731Z,11.75
2023-05-12T07:07:32.225Z,11.67
2023-05-12T07:10:35.348Z,11.61
2023-05-12T07:13:38.438Z,11.56
2023-05-12T07:16:41.171Z,11.47
2023-05-12T07:19:43.840Z,11.55
2023-05-12T07:22:46.634Z,11.43
2023-05-12T07:25:49.314Z,11.46
2023-05-12T07:28:52.872Z,11.47
2023-05-12T07:31:55.687Z,11.61
2023-05-12T07:34:58.720Z,11.48
2023-05-12T07:38:03.233Z,11.39
2023-05-12T07:41:06.093Z,11.30
2023-05-12T07:44:08.893Z,11.30
2023-05-12T07:47:11.704Z,11.32
2023-05-12T07:50:14.222Z,11.31
2023-05-12T07:53:16.989Z,11.23
2023-05-12T07:56:19.613Z,11.31
2023-05-12T07:59:22.397Z,11.29
2023-05-12T08:02:24.998Z,11.25
2023-05-12T08:05:27.896Z,11.23
2023-05-12T08:08:30.720Z,11.20
2023-05-12T08:11:33.487Z,11.24
2023-05-12T08:14:36.307Z,11.27
2023-05-12T08:17:39.254Z,11.25
2023-05-12T08:20:42.104Z,11.22
2023-05-12T08:23:45.034Z,11.06
2023-05-12T08:26:47.576Z,11.11
2023-05-12T08:29:50.533Z,11.07
2023-05-12T08:32:54.508Z,11.15
2023-05-12T08:35:57.429Z,11.15
2023-05-12T08:39:00.117Z,11.09
2023-05-12T08:42:30.155Z,11.16
2023-05-12T08:45:34.069Z,11.19
2023-05-12T08:48:38.826Z,11.12
2023-05-12T08:51:46.653Z,11.11
2023-05-12T08:54:56.436Z,11.13
2023-05-12T08:58:00.307Z,11.02
2023-05-12T09:01:07.457Z,11.04
2023-05-12T09:04:10.394Z,11.04
2023-05-12T09:07:13.448Z,10.98
2023-05-12T09:10:32.926Z,10.94
2023-05-12T09:14:02.712Z,10.90
2023-05-12T09:17:05.646Z,10.88
2023-05-12T09:20:20.522Z,10.91
2023-05-12T09:23:26.502Z,10.88
2023-05-12T09:26:29.456Z,10.91
2023-05-12T09:29:42.484Z,10.90
2023-05-12T09:32:51.108Z,10.90
2023-05-12T09:35:53.683Z,10.83
2023-05-12T09:39:00.870Z,10.84
2023-05-12T09:42:03.622Z,10.80
2023-05-12T09:45:09.501Z,10.87
2023-05-12T09:48:13.029Z,10.91
2023-05-12T09:51:19.078Z,11.01
2023-05-12T09:54:28.539Z,11.06
2023-05-12T09:57:31.969Z,11.06
2023-05-12T10:00:52.517Z,11.05
2023-05-12T10:03:59.178Z,11.06
2023-05-12T10:07:01.760Z,11.03
2023-05-12T10:10:07.270Z,11.11
2023-05-12T10:13:14.408Z,11.06
2023-05-12T10:16:17.569Z,11.00
2023-05-12T10:19:20.313Z,11.21
2023-05-12T10:22:23.597Z,11.21
2023-05-12T10:25:26.080Z,11.27
2023-05-12T10:28:29.614Z,11.23
2023-05-12T10:31:32.312Z,11.31
2023-05-12T10:34:37.165Z,11.24
2023-05-12T10:37:40.030Z,11.29
2023-05-12T10:41:09.138Z,11.36
2023-05-12T10:44:12.307Z,11.35
2023-05-12T10:47:15.257Z,11.27
2023-05-12T10:50:27.841Z,11.37
2023-05-12T10:53:47.656Z,11.42
2023-05-12T10:56:52.457Z,11.32
2023-05-12T11:00:00.679Z,11.33
2023-05-12T11:03:13.166Z,11.32
2023-05-12T11:06:19.482Z,11.31
2023-05-12T11:09:22.406Z,11.20
2023-05-12T11:12:27.566Z,11.09
2023-05-12T11:15:31.354Z,11.04
2023-05-12T11:18:34.199Z,11.04
2023-05-12T11:21:37.186Z,10.98
2023-05-12T11:24:41.301Z,10.93
2023-05-12T11:27:53.299Z,11.03
2023-05-12T11:30:56.240Z,11.02
2023-05-12T11:34:12.480Z,11.04
2023-05-12T11:37:16.379Z,11.23
2023-05-12T11:40:21.073Z,11.23
2023-05-12T11:43:23.972Z,11.38
2023-05-12T11:46:30.329Z,11.33
2023-05-12T11:49:34.742Z,11.34
2023-05-12T11:52:37.185Z,11.31
2023-05-12T11:55:51.216Z,11.29
2023-05-12T11:58:58.257Z,11.22
2023-05-12T12:02:04.021Z,11.27
2023-05-12T12:05:17.654Z,11.29
2023-05-12T12:08:20.368Z,11.25
2023-05-12T12:11:26.876Z,11.19
2023-05-12T12:14:31.105Z,10.06
2023-05-12T12:17:33.984Z,11.02
2023-05-12T12:20:36.564Z,11.12
2023-05-12T12:23:50.369Z,11.05
2023-05-12T12:26:53.619Z,10.97
2023-05-12T12:29:56.544Z,11.01
2023-05-12T12:32:59.293Z,10.88
2023-05-12T12:36:02.205Z,10.96
2023-05-12T12:39:04.803Z,10.92
2023-05-12T12:42:07.787Z,10.93
2023-05-12T12:45:10.814Z,10.88
2023-05-12T12:48:13.741Z,10.76
2023-05-12T12:51:16.381Z,10.90
2023-05-12T12:54:19.221Z,10.94
2023-05-12T12:57:22.896Z,10.85
2023-05-12T13:00:25.704Z,10.85
2023-05-12T13:03:28.415Z,10.85
2023-05-12T13:06:31.247Z,10.74
2023-05-12T13:09:33.744Z,10.83
2023-05-12T13:12:36.570Z,10.72
2023-05-12T13:15:39.851Z,10.69
2023-05-12T13:18:42.779Z,10.93
2023-05-12T13:21:45.311Z,10.98
2023-05-12T13:24:48.206Z,10.96
2023-05-12T13:27:50.780Z,10.97
2023-05-12T13:30:53.708Z,11.03
2023-05-12T13:33:56.405Z,11.05
2023-05-12T13:36:59.355Z,10.96
2023-05-12T13:40:02.376Z,11.00
2023-05-12T13:43:05.427Z,10.98
2023-05-12T13:46:09.413Z,10.97
2023-05-12T13:49:12.915Z,10.89
2023-05-12T13:52:16.244Z,10.94
2023-05-12T13:55:21.600Z,10.72
2023-05-12T13:58:24.473Z,10.93
2023-05-12T14:01:27.819Z,10.85
2023-05-12T14:04:30.700Z,10.88
2023-05-12T14:07:33.323Z,11.01
2023-05-12T14:10:36.247Z,11.00
2023-05-12T14:13:38.746Z,10.94
2023-05-12T14:16:41.719Z,11.00
2023-05-12T14:19:45.087Z,10.96
2023-05-12T14:22:47.809Z,11.07
2023-05-12T14:25:50.448Z,11.15
2023-05-12T14:28:53.308Z,11.12
2023-05-12T14:31:55.878Z,11.06
2023-05-12T14:34:58.628Z,11.00
2023-05-12T14:38:01.227Z,11.01
2023-05-12T14:41:04.166Z,11.02
2023-05-12T14:44:06.702Z,11.01
2023-05-12T14:47:09.486Z,10.92
2023-05-12T14:50:12.089Z,10.94
2023-05-12T14:53:15.439Z,10.96
2023-05-12T14:56:17.912Z,11.01
2023-05-12T14:59:20.857Z,11.04
2023-05-12T15:02:23.458Z,11.02
2023-05-12T15:05:41.198Z,10.97
2023-05-12T15:08:48.825Z,10.90
2023-05-12T15:11:51.775Z,10.93
2023-05-12T15:14:56.107Z,10.99
2023-05-12T15:17:59.267Z,10.93
2023-05-12T15:21:01.987Z,10.89
2023-05-12T15:24:06.284Z,10.93
2023-05-12T15:27:09.061Z,10.79
2023-05-12T15:30:12.609Z,10.77
2023-05-12T15:33:15.226Z,10.69
2023-05-12T15:36:18.024Z,10.76
2023-05-12T15:39:21.732Z,10.70
2023-05-12T15:42:30.109Z,10.74
2023-05-12T15:45:38.460Z,10.83
2023-05-12T15:48:41.394Z,10.84
2023-05-12T15:51:44.671Z,10.85
2023-05-12T15:54:47.567Z,10.84
2023-05-12T15:57:50.233Z,10.77
2023-05-12T16:00:56.152Z,10.92
2023-05-12T16:03:59.327Z,10.96
2023-05-12T16:07:02.075Z,10.97
2023-05-12T16:10:05.695Z,11.00
2023-05-12T16:13:08.981Z,11.04
2023-05-12T16:16:11.853Z,11.04
2023-05-12T16:19:18.168Z,11.03
2023-05-12T16:22:20.995Z,10.89
2023-05-12T16:25:23.566Z,10.97
2023-05-12T16:28:27.003Z,11.03
2023-05-12T16:31:30.995Z,11.04
2023-05-12T16:34:33.781Z,11.00
2023-05-12T16:37:36.227Z,10.96
2023-05-12T16:40:39.068Z,10.99
2023-05-12T16:43:41.634Z,10.88
2023-05-12T16:46:44.494Z,10.76
2023-05-12T16:49:47.054Z,10.76
2023-05-12T16:52:49.900Z,10.77
2023-05-12T16:55:52.692Z,10.71
2023-05-12T16:58:55.630Z,10.69
2023-05-12T17:01:59.544Z,10.69
2023-05-12T17:05:02.346Z,10.70
2023-05-12T17:08:05.023Z,10.66
2023-05-12T17:11:08.208Z,10.59
2023-05-12T17:14:10.724Z,10.58
2023-05-12T17:17:13.596Z,11.56
2023-05-12T17:20:16.153Z,11.33
2023-05-12T17:23:18.967Z,11.02
2023-05-12T17:26:21.471Z,10.93
2023-05-12T17:29:24.276Z,10.78
2023-05-12T17:32:28.284Z,10.65
2023-05-12T17:35:32.628Z,10.65
2023-05-12T17:38:35.418Z,10.57
2023-05-12T17:41:42.662Z,10.58
2023-05-12T17:44:45.361Z,10.28
2023-05-12T17:47:51.321Z,10.52
2023-05-12T17:50:53.886Z,10.47
2023-05-12T17:53:56.875Z,10.45
2023-05-12T17:56:59.567Z,10.44
2023-05-12T18:00:09.337Z,10.31
2023-05-12T18:03:17.592Z,10.37
2023-05-12T18:06:20.782Z,10.37
2023-05-12T18:09:23.547Z,10.34
2023-05-12T18:12:27.061Z,10.28
2023-05-12T18:15:30.221Z,10.23
2023-05-12T18:18:33.382Z,10.21
2023-05-12T18:21:36.344Z,10.18
2023-05-12T18:24:41.803Z,10.25
2023-05-12T18:27:44.384Z,10.17
2023-05-12T18:30:47.386Z,10.25
2023-05-12T18:33:50.248Z,10.06
2023-05-12T18:36:53.580Z,10.18
2023-05-12T18:39:58.270Z,10.18
2023-05-12T18:43:01.251Z,10.20
2023-05-12T18:46:04.430Z,10.89
2023-05-12T18:49:07.673Z,10.51
2023-05-12T18:52:10.192Z,10.38
2023-05-12T18:55:13.011Z,10.24
2023-05-12T18:58:17.134Z,10.23
2023-05-12T19:01:23.007Z,10.05
2023-05-12T19:04:26.300Z,10.22
2023-05-12T19:07:29.066Z,10.18
2023-05-12T19:10:32.588Z,10.17
2023-05-12T19:13:40.614Z,10.16
2023-05-12T19:16:46.402Z,10.28
2023-05-12T19:19:50.585Z,10.61
2023-05-12T19:22:53.200Z,10.32
2023-05-12T19:25:56.005Z,10.32
2023-05-12T19:29:00.464Z,10.27
2023-05-12T19:32:03.502Z,10.26
2023-05-12T19:35:07.075Z,10.11
2023-05-12T19:38:10.000Z,10.20
2023-05-12T19:41:12.490Z,10.20
2023-05-12T19:44:15.332Z,10.18
2023-05-12T19:47:17.999Z,10.24
2023-05-12T19:50:21.234Z,10.19
2023-05-12T19:53:23.830Z,10.22
2023-05-12T19:56:27.170Z,10.21
2023-05-12T19:59:29.947Z,10.19
2023-05-12T20:02:33.025Z,10.18
2023-05-12T20:05:37.379Z,10.15
2023-05-12T20:08:40.077Z,10.13
2023-05-12T20:11:42.976Z,10.12
2023-05-12T20:14:45.638Z,10.05
2023-05-12T20:17:48.469Z,10.13
2023-05-12T20:20:51.107Z,10.15
2023-05-12T20:23:53.932Z,10.21
2023-05-12T20:26:56.707Z,10.17
2023-05-12T20:29:59.682Z,10.23
2023-05-12T20:33:02.404Z,10.24
2023-05-12T20:36:05.623Z,10.28
2023-05-12T20:39:10.118Z,10.28
2023-05-12T20:42:13.136Z,10.27
2023-05-12T20:45:15.933Z,10.24
2023-05-12T20:48:18.782Z,10.24
2023-05-12T20:51:21.492Z,10.27
2023-05-12T20:54:24.295Z,10.29
2023-05-12T20:57:27.288Z,10.26
2023-05-12T21:00:30.163Z,10.24
2023-05-12T21:03:33.586Z,10.20
2023-05-12T21:06:36.994Z,10.20
2023-05-12T21:09:39.564Z,10.16
2023-05-12T21:12:42.397Z,10.14
2023-05-12T21:15:45.089Z,10.16
2023-05-12T21:18:48.229Z,10.17
2023-05-12T21:21:50.966Z,10.01
2023-05-12T21:24:53.877Z,10.06
2023-05-12T21:27:56.554Z,10.10
2023-05-12T21:30:59.345Z,10.06
2023-05-12T21:34:01.977Z,10.07
2023-05-12T21:37:04.997Z,10.05
2023-05-12T21:40:08.058Z,10.06
2023-05-12T21:43:10.913Z,10.01
2023-05-12T21:46:13.468Z,10.07
2023-05-12T21:49:16.504Z,10.03
2023-05-12T21:52:19.388Z,9.96
2023-05-12T21:55:22.392Z,10.02
2023-05-12T21:58:24.979Z,9.93
2023-05-12T22:01:28.813Z,9.96
2023-05-12T22:04:31.671Z,9.95
2023-05-12T22:07:34.131Z,10.01
2023-05-12T22:10:37.248Z,10.02
2023-05-12T22:13:40.080Z,10.00
2023-05-12T22:16:43.163Z,9.97
2023-05-12T22:19:45.764Z,9.92
2023-05-12T22:22:49.872Z,9.93
2023-05-12T22:25:52.565Z,9.90
2023-05-12T22:28:55.600Z,9.89
2023-05-12T22:31:58.178Z,9.85
2023-05-12T22:35:01.397Z,9.85
2023-05-12T22:38:03.993Z,9.86
2023-05-12T22:41:06.899Z,9.78
2023-05-12T22:44:09.849Z,9.88
2023-05-12T22:47:13.195Z,9.82
2023-05-12T22:50:16.082Z,9.88
2023-05-12T22:53:18.978Z,9.85
2023-05-12T22:56:21.576Z,9.68
2023-05-12T22:59:24.405Z,9.83
2023-05-12T23:02:27.057Z,9.84
2023-05-12T23:05:29.922Z,9.87
2023-05-12T23:08:32.501Z,9.90
2023-05-12T23:11:35.817Z,9.87
2023-05-12T23:14:38.399Z,9.90
2023-05-12T23:17:41.486Z,9.86
2023-05-12T23:20:44.196Z,9.81
2023-05-12T23:23:47.162Z,9.88
2023-05-12T23:26:50.726Z,9.84
2023-05-12T23:29:53.814Z,9.88
2023-05-12T23:32:56.847Z,9.74
2023-05-12T23:35:59.845Z,9.78
2023-05-12T23:39:02.489Z,9.72
2023-05-12T23:42:05.666Z,9.85
2023-05-12T23:45:08.626Z,9.84
2023-05-12T23:48:11.814Z,9.83
2023-05-12T23:51:14.445Z,9.81
2023-05-12T23:54:17.476Z,9.77
2023-05-12T23:57:20.322Z,9.84
